»·PEaware :: ASA3450 KBOI-KSEA

ASA3450 :: KBOI-KSEA

FLIGHT INFORMATION

Flight Status: Arrived
Operator:
Alaska Airlines
More flights by this operator :: More flights under this callsign
Pilot: Nick P. (19952)
Aircraft: AIRBUS A319
(A319)
More flights by this aircraft type
Origin: KBOI Boise Air Terminal/Gowen
United States
Destination: KSEA Seattle-Tacoma Intl
United States
More flights between these airports :: More routes between these airports
Route: +BOI3 LICKS PREIS PDT CHINS3
File this flight plan on PilotEdge
Remarks:
Altitude:
(Current/Filed)
38,000ft
Speed:
(Current/Filed)
450kts
Departed: 17-Jan-19 06:49 PM
Arrived: 17-Jan-19 07:58 PM
Distance/Time
Traveled:
346nm/1:09
Distance/Time
To Go:
Arrived

Flight Plot

Page will automatically refresh every two minutes.

Flight plan parsing failed; only flown route is shown


Map Options




Map Legend


Flown Route
Filed Route
Departure Airport
Arrival Airport
Navaid (VOR, NDB)
Fix

Horizontal Profiles

Position Reports

Time Latitude Longitude Heading Altitude Ground
Speed
17-Jan-19 18:27 43.566960 -116.219669 29 2852ft 0kts
17-Jan-19 18:28 43.566960 -116.219669 29 2852ft 0kts
17-Jan-19 18:29 43.566960 -116.219669 29 2852ft 0kts
17-Jan-19 18:29 43.566960 -116.219669 29 2852ft 0kts
17-Jan-19 18:31 43.566960 -116.219669 29 2852ft 0kts
17-Jan-19 18:32 43.566960 -116.219669 29 2852ft 0kts
17-Jan-19 18:33 43.566960 -116.219669 29 2852ft 0kts
17-Jan-19 18:33 43.566960 -116.219669 29 2852ft 0kts
17-Jan-19 18:34 43.566960 -116.219669 29 2852ft 0kts
17-Jan-19 18:35 43.566960 -116.219669 29 2852ft 0kts
17-Jan-19 18:36 43.566960 -116.219669 29 2852ft 0kts
17-Jan-19 18:37 43.566960 -116.219669 29 2852ft 0kts
17-Jan-19 18:38 43.566960 -116.219669 29 2852ft 0kts
17-Jan-19 18:39 43.566766 -116.219820 29 2852ft 2kts
17-Jan-19 18:40 43.566299 -116.219841 305 2852ft 1kts
17-Jan-19 18:41 43.566253 -116.219714 294 2852ft 0kts
17-Jan-19 18:42 43.566253 -116.219714 294 2852ft 0kts
17-Jan-19 18:43 43.566620 -116.220821 290 2852ft 10kts
17-Jan-19 18:44 43.567350 -116.224975 295 2852ft 15kts
17-Jan-19 18:45 43.569577 -116.231532 295 2852ft 21kts
17-Jan-19 18:46 43.570945 -116.236152 238 2852ft 0kts
17-Jan-19 18:47 43.569916 -116.236072 115 2852ft 12kts
17-Jan-19 18:48 43.557191 -116.198449 111 3461ft 170kts
17-Jan-19 18:49 43.537985 -116.133375 110 5504ft 211kts
17-Jan-19 18:50 43.511968 -116.042664 110 7441ft 287kts
17-Jan-19 18:51 43.520702 -115.942863 23 10393ft 297kts
17-Jan-19 18:52 43.594020 -115.984663 310 12277ft 326kts
17-Jan-19 18:53 43.659384 -116.077042 310 15081ft 341kts
17-Jan-19 18:54 43.728339 -116.172973 311 17332ft 353kts
17-Jan-19 18:55 43.799624 -116.272217 311 19548ft 366kts
17-Jan-19 18:56 43.873700 -116.375696 311 21591ft 377kts
17-Jan-19 18:57 43.949489 -116.481938 311 23437ft 388kts
17-Jan-19 18:58 44.026855 -116.590692 311 25125ft 398kts
17-Jan-19 18:59 44.109521 -116.703969 315 25959ft 429kts
17-Jan-19 19:00 44.204189 -116.812256 312 27229ft 439kts
17-Jan-19 19:01 44.291679 -116.931952 311 28812ft 437kts
17-Jan-19 19:02 44.378054 -117.051030 311 30395ft 432kts
17-Jan-19 19:03 44.463593 -117.169448 311 31760ft 429kts
17-Jan-19 19:04 44.548677 -117.287700 311 32938ft 427kts
17-Jan-19 19:05 44.633508 -117.406206 311 34005ft 425kts
17-Jan-19 19:06 44.717543 -117.524109 311 34955ft 423kts
17-Jan-19 19:07 44.801963 -117.643049 311 35782ft 421kts
17-Jan-19 19:08 44.885210 -117.761241 311 36501ft 420kts
17-Jan-19 19:09 44.968753 -117.880094 311 37091ft 420kts
17-Jan-19 19:10 45.052106 -117.999150 311 37471ft 425kts
17-Jan-19 19:11 45.136051 -118.119261 311 37693ft 433kts
17-Jan-19 19:12 45.223208 -118.244302 311 37510ft 446kts
17-Jan-19 19:13 45.311814 -118.372452 311 37532ft 451kts
17-Jan-19 19:14 45.400375 -118.501196 311 37728ft 451kts
17-Jan-19 19:15 45.488745 -118.630303 311 37799ft 452kts
17-Jan-19 19:16 45.575855 -118.758498 311 37798ft 451kts
17-Jan-19 19:17 45.663780 -118.888143 311 37798ft 449kts
17-Jan-19 19:18 45.748453 -119.022363 307 37798ft 444kts
17-Jan-19 19:19 45.828389 -119.158871 307 37808ft 443kts
17-Jan-19 19:20 45.908607 -119.295271 307 37832ft 443kts
17-Jan-19 19:21 45.988339 -119.431398 307 37845ft 443kts
17-Jan-19 19:22 46.065750 -119.564044 307 36628ft 423kts
17-Jan-19 19:23 46.140540 -119.692557 306 35059ft 424kts
17-Jan-19 19:24 46.214240 -119.820114 306 33868ft 419kts
17-Jan-19 19:25 46.288536 -119.949364 306 32979ft 414kts
17-Jan-19 19:26 46.363092 -120.079827 306 32191ft 428kts
17-Jan-19 19:27 46.439095 -120.213268 306 31399ft 429kts
17-Jan-19 19:28 46.515033 -120.347228 306 30491ft 430kts
17-Jan-19 19:29 46.589605 -120.482871 302 29872ft 429kts
17-Jan-19 19:30 46.656199 -120.624484 301 27487ft 417kts
17-Jan-19 19:31 46.718029 -120.755155 301 25343ft 401kts
17-Jan-19 19:32 46.779955 -120.885888 300 23493ft 366kts
17-Jan-19 19:33 46.835894 -121.004782 300 20849ft 345kts
17-Jan-19 19:34 46.889139 -121.118299 299 18128ft 329kts
17-Jan-19 19:35 46.940469 -121.228175 298 16074ft 326kts
17-Jan-19 19:36 46.992623 -121.340370 298 16042ft 333kts
17-Jan-19 19:37 47.045973 -121.455369 298 16019ft 340kts
17-Jan-19 19:38 47.099490 -121.571382 298 15998ft 341kts
17-Jan-19 19:39 47.148186 -121.676698 297 15981ft 340kts
17-Jan-19 19:40 47.202330 -121.795004 297 15008ft 335kts
17-Jan-19 19:41 47.254076 -121.908633 297 14016ft 330kts
17-Jan-19 19:42 47.306433 -122.019233 295 12899ft 318kts
17-Jan-19 19:43 47.351754 -122.123565 295 11972ft 296kts
17-Jan-19 19:44 47.427925 -122.169937 359 11957ft 328kts
17-Jan-19 19:45 47.515958 -122.161825 0 10702ft 311kts
17-Jan-19 19:46 47.598975 -122.156297 0 8970ft 291kts
17-Jan-19 19:47 47.678412 -122.153573 0 7102ft 279kts
17-Jan-19 19:48 47.752755 -122.163340 321 5320ft 262kts
17-Jan-19 19:49 47.765286 -122.253117 242 4357ft 213kts
17-Jan-19 19:50 47.721036 -122.298874 198 3230ft 177kts
17-Jan-19 19:51 47.676225 -122.305125 180 2535ft 148kts
17-Jan-19 19:52 47.634604 -122.306082 178 2022ft 150kts
17-Jan-19 19:53 47.593042 -122.306597 178 1867ft 150kts
17-Jan-19 19:54 47.551716 -122.306988 179 1844ft 142kts
17-Jan-19 19:55 47.513513 -122.307328 178 1441ft 136kts
17-Jan-19 19:56 47.475792 -122.307677 179 707ft 135kts
17-Jan-19 19:57 47.447936 -122.307895 182 405ft 21kts
17-Jan-19 19:58 47.445830 -122.306722 121 400ft 6kts
17-Jan-19 19:59 47.443190 -122.303955 112 393ft 16kts

Navigation Log

Ident Type
Flight plan parsing failed, navigation log unavailable